Friday, October 19, 2018, 11:48 AM EDT
Back to Local

KPSF, Pittsfield Municipal Airport

Location: Pittsfield, MA, United States Lat: 42.433
Local Time: 11:48 AM EDT (15:48 GMT) Lon: -73.283
Time Zone: US/Eastern Elev: 1194 ft

Show me the last for .
Show Decoded

2018-10-19 10:54 METAR KPSF 191454Z AUTO 23004KT 10SM CLR 09/M01 A3015 RMK AO2 SLP211 T00891006
                 58014 =
2018-10-19 09:54 METAR KPSF 191354Z AUTO 24005KT 10SM CLR 07/M01 A3017 RMK AO2 SLP218 T00671011 =
2018-10-19 09:21 METAR KPSF 191321Z AUTO 00000KT 10SM SCT022 04/M02 A3018 RMK AO2 T00441017 =
2018-10-19 09:05 METAR KPSF 191305Z AUTO 00000KT 10SM BKN023 03/M02 A3018 RMK AO2 T00331022 =
2018-10-19 08:54 METAR KPSF 191254Z AUTO 00000KT 10SM FEW024 03/M02 A3018 RMK AO2 SLP227
                 T00281022 =
2018-10-19 07:54 METAR KPSF 191154Z AUTO 00000KT 10SM CLR 00/M03 A3019 RMK AO2 SLP232 T00001033
                 10022 21017 55006 =
2018-10-19 06:54 METAR KPSF 191054Z AUTO 00000KT 10SM FEW025 M02/M04 A3019 RMK AO2 SLP232
                 T10171044 =
2018-10-19 05:54 METAR KPSF 190954Z AUTO 26005KT 10SM FEW025 M01/M04 A3020 RMK AO2 SLP235
                 T10061039 =
2018-10-19 05:46 METAR KPSF 190946Z AUTO 25005KT 10SM SCT025 00/M04 A3021 RMK AO2 T00001044 =
2018-10-19 05:34 METAR KPSF 190934Z AUTO 23006KT 10SM BKN026 01/M04 A3021 RMK AO2 T00061044 =
2018-10-19 04:54 METAR KPSF 190854Z AUTO 22005KT 10SM FEW027 00/M04 A3021 RMK AO2 SLP235
                 T00001039 57003 =
2018-10-19 04:52 METAR KPSF 190852Z AUTO 24005KT 10SM SCT027 00/M04 A3021 RMK AO2 =
2018-10-19 04:07 METAR KPSF 190807Z AUTO 22005KT 10SM BKN027 01/M03 A3021 RMK AO2 T00111033 =
2018-10-19 03:54 METAR KPSF 190754Z AUTO 22005KT 10SM SCT027 02/M03 A3022 RMK AO2 SLP236
                 T00221033 =
2018-10-19 03:50 METAR KPSF 190750Z AUTO 22003KT 10SM SCT027 02/M03 A3022 RMK AO2 =
2018-10-19 02:54 METAR KPSF 190654Z AUTO 22004KT 10SM OVC028 02/M04 A3022 RMK AO2 SLP237
                 T00221039 =
2018-10-19 02:29 METAR KPSF 190629Z AUTO 20005KT 10SM BKN029 02/M04 A3022 RMK AO2 T00221039 =
2018-10-19 01:54 METAR KPSF 190554Z AUTO 20005KT 10SM CLR 02/M04 A3023 RMK AO2 SLP240 T00171044
                 10022 20006 56010 =
2018-10-19 00:54 METAR KPSF 190454Z AUTO 20004KT 10SM CLR 01/M05 A3024 RMK AO2 SLP245 T00111050
                 400561011 =
2018-10-18 23:54 METAR KPSF 190354Z AUTO 00000KT 10SM CLR 01/M06 A3025 RMK AO2 SLP249 T00111056 =
2018-10-18 22:54 METAR KPSF 190254Z AUTO 00000KT 10SM OVC037 01/M04 A3026 RMK AO2 SLP254
                 T00111039 50000 =
2018-10-18 21:54 METAR KPSF 190154Z AUTO 21004KT 10SM BKN040 01/M06 A3027 RMK AO2 SLP257
                 T00111056 =
2018-10-18 20:54 METAR KPSF 190054Z AUTO 25004KT 10SM CLR 02/M06 A3026 RMK AO2 SLP255 T00171061 =
2018-10-18 19:54 METAR KPSF 182354Z AUTO 29009G14KT 260V330 10SM CLR 02/M07 A3026 RMK AO2 SLP255
                 T00221067 10056 20017 51011 =
2018-10-18 18:54 METAR KPSF 182254Z AUTO 10SM CLR 03/M09 A3025 RMK AO2 SLP252 T00281089 =
2018-10-18 17:54 METAR KPSF 182154Z AUTO 29010KT 10SM CLR 04/M08 A3024 RMK AO2 SLP247 T00391083 =
2018-10-18 16:54 METAR KPSF 182054Z AUTO 30013G21KT 10SM CLR 05/M10 A3023 RMK AO2 SLP241
                 T00501100 55004 =
2018-10-18 15:54 METAR KPSF 181954Z AUTO 31011G25KT 10SM CLR 06/M09 A3022 RMK AO2 SLP239
                 T00561094 =
2018-10-18 14:54 METAR KPSF 181854Z AUTO 28015G22KT 10SM CLR 05/M09 A3023 RMK AO2 SLP240
                 T00501094 =
2018-10-18 13:54 METAR KPSF 181754Z AUTO 32015G25KT 10SM CLR 05/M09 A3024 RMK AO2 SLP243
                 T00501089 10050 21006 50004 =
2018-10-18 12:54 METAR KPSF 181654Z AUTO 30010G22KT 10SM CLR 04/M09 A3025 RMK AO2 PK WND
                 30026/1613 SLP247 T00391089 =
2018-10-18 11:54 METAR KPSF 181554Z AUTO 30013G23KT 10SM FEW043 03/M08 A3024 RMK AO2 PK WND
                 31026/1527 SLP246 T00331078 =

Support USWX by starting your Amazon purchase here.